sensor_id;sensor_type;location;lat;lon;timestamp;temperature;humidity
24207;DHT22;12351;52.284;9.160;2022-12-26T00:00:10;10.20;99.90
24207;DHT22;12351;52.284;9.160;2022-12-26T00:03:00;10.20;99.90
24207;DHT22;12351;52.284;9.160;2022-12-26T00:05:50;10.20;99.90
24207;DHT22;12351;52.284;9.160;2022-12-26T00:08:40;10.20;99.90
24207;DHT22;12351;52.284;9.160;2022-12-26T00:11:29;10.20;99.90
24207;DHT22;12351;52.284;9.160;2022-12-26T00:14:19;10.10;99.90
24207;DHT22;12351;52.284;9.160;2022-12-26T00:17:07;10.20;99.90
24207;DHT22;12351;52.284;9.160;2022-12-26T00:19:57;10.20;99.90
24207;DHT22;12351;52.284;9.160;2022-12-26T00:22:46;10.20;99.90
24207;DHT22;12351;52.284;9.160;2022-12-26T00:25:34;10.20;99.90
24207;DHT22;12351;52.284;9.160;2022-12-26T00:28:22;10.20;99.90
24207;DHT22;12351;52.284;9.160;2022-12-26T00:31:13;10.20;99.90
24207;DHT22;12351;52.284;9.160;2022-12-26T00:34:01;10.10;99.90
24207;DHT22;12351;52.284;9.160;2022-12-26T00:36:51;10.10;99.90
24207;DHT22;12351;52.284;9.160;2022-12-26T00:39:40;10.10;99.90
24207;DHT22;12351;52.284;9.160;2022-12-26T00:42:29;10.10;99.90
24207;DHT22;12351;52.284;9.160;2022-12-26T00:45:18;10.10;99.90
24207;DHT22;12351;52.284;9.160;2022-12-26T00:48:05;10.10;99.90
24207;DHT22;12351;52.284;9.160;2022-12-26T00:50:54;10.10;99.90
24207;DHT22;12351;52.284;9.160;2022-12-26T00:53:44;10.10;99.90
24207;DHT22;12351;52.284;9.160;2022-12-26T00:56:34;10.10;99.90
24207;DHT22;12351;52.284;9.160;2022-12-26T00:59:20;10.10;99.90
24207;DHT22;12351;52.284;9.160;2022-12-26T01:02:10;10.10;99.90
24207;DHT22;12351;52.284;9.160;2022-12-26T01:05:00;10.00;99.90
24207;DHT22;12351;52.284;9.160;2022-12-26T01:07:49;9.90;99.90
24207;DHT22;12351;52.284;9.160;2022-12-26T01:10:40;9.80;99.90
24207;DHT22;12351;52.284;9.160;2022-12-26T01:13:27;9.80;99.90
24207;DHT22;12351;52.284;9.160;2022-12-26T01:16:14;9.70;99.90
24207;DHT22;12351;52.284;9.160;2022-12-26T01:19:02;9.70;99.90
24207;DHT22;12351;52.284;9.160;2022-12-26T01:21:51;9.70;99.90
24207;DHT22;12351;52.284;9.160;2022-12-26T01:24:40;9.70;99.90
24207;DHT22;12351;52.284;9.160;2022-12-26T01:27:29;9.70;99.90
24207;DHT22;12351;52.284;9.160;2022-12-26T01:30:17;9.70;99.90
24207;DHT22;12351;52.284;9.160;2022-12-26T01:33:05;9.60;99.90
24207;DHT22;12351;52.284;9.160;2022-12-26T01:35:55;9.70;99.90
24207;DHT22;12351;52.284;9.160;2022-12-26T01:38:44;9.70;99.90
24207;DHT22;12351;52.284;9.160;2022-12-26T01:41:33;9.70;99.90
24207;DHT22;12351;52.284;9.160;2022-12-26T01:47:11;9.70;99.90
24207;DHT22;12351;52.284;9.160;2022-12-26T01:49:59;9.80;99.90
24207;DHT22;12351;52.284;9.160;2022-12-26T01:52:47;9.80;99.90
24207;DHT22;12351;52.284;9.160;2022-12-26T01:55:37;9.80;99.90
24207;DHT22;12351;52.284;9.160;2022-12-26T01:58:29;9.80;99.90
24207;DHT22;12351;52.284;9.160;2022-12-26T02:01:18;9.80;99.90
24207;DHT22;12351;52.284;9.160;2022-12-26T02:04:10;9.80;99.90
24207;DHT22;12351;52.284;9.160;2022-12-26T02:07:01;9.80;99.90
24207;DHT22;12351;52.284;9.160;2022-12-26T02:09:50;9.80;99.90
24207;DHT22;12351;52.284;9.160;2022-12-26T02:12:40;9.80;99.90
24207;DHT22;12351;52.284;9.160;2022-12-26T02:15:30;9.80;99.90
24207;DHT22;12351;52.284;9.160;2022-12-26T02:18:21;9.80;99.90
24207;DHT22;12351;52.284;9.160;2022-12-26T02:29:50;9.70;99.90
24207;DHT22;12351;52.284;9.160;2022-12-26T02:46:41;9.70;99.90
24207;DHT22;12351;52.284;9.160;2022-12-26T02:49:32;9.70;99.90
24207;DHT22;12351;52.284;9.160;2022-12-26T02:52:23;9.70;99.90
24207;DHT22;12351;52.284;9.160;2022-12-26T02:55:14;9.70;99.90
24207;DHT22;12351;52.284;9.160;2022-12-26T02:58:05;9.70;99.90
24207;DHT22;12351;52.284;9.160;2022-12-26T03:00:57;9.70;99.90
24207;DHT22;12351;52.284;9.160;2022-12-26T03:03:48;9.70;99.90
24207;DHT22;12351;52.284;9.160;2022-12-26T03:06:38;9.70;99.90
24207;DHT22;12351;52.284;9.160;2022-12-26T03:09:30;9.70;99.90
24207;DHT22;12351;52.284;9.160;2022-12-26T03:15:00;9.70;99.90
24207;DHT22;12351;52.284;9.160;2022-12-26T03:17:53;9.70;99.90
24207;DHT22;12351;52.284;9.160;2022-12-26T03:20:40;9.70;99.90
24207;DHT22;12351;52.284;9.160;2022-12-26T03:23:30;9.70;99.90
24207;DHT22;12351;52.284;9.160;2022-12-26T03:26:21;9.70;99.90
24207;DHT22;12351;52.284;9.160;2022-12-26T03:29:13;9.60;99.90
24207;DHT22;12351;52.284;9.160;2022-12-26T03:32:05;9.60;99.90
24207;DHT22;12351;52.284;9.160;2022-12-26T03:34:52;9.60;99.90
24207;DHT22;12351;52.284;9.160;2022-12-26T03:46:23;9.60;99.90
24207;DHT22;12351;52.284;9.160;2022-12-26T03:49:11;9.60;99.90
24207;DHT22;12351;52.284;9.160;2022-12-26T03:52:04;9.60;99.90
24207;DHT22;12351;52.284;9.160;2022-12-26T04:00:36;9.60;99.90
24207;DHT22;12351;52.284;9.160;2022-12-26T04:03:28;9.60;99.90
24207;DHT22;12351;52.284;9.160;2022-12-26T04:06:22;9.60;99.90
24207;DHT22;12351;52.284;9.160;2022-12-26T04:09:12;9.60;99.90
24207;DHT22;12351;52.284;9.160;2022-12-26T04:12:01;9.50;99.90
24207;DHT22;12351;52.284;9.160;2022-12-26T04:14:56;9.50;99.90
24207;DHT22;12351;52.284;9.160;2022-12-26T04:17:46;9.50;99.90
24207;DHT22;12351;52.284;9.160;2022-12-26T04:23:30;9.50;99.90
24207;DHT22;12351;52.284;9.160;2022-12-26T04:26:20;9.50;99.90
24207;DHT22;12351;52.284;9.160;2022-12-26T04:29:09;9.50;99.90
24207;DHT22;12351;52.284;9.160;2022-12-26T04:34:53;9.50;99.90
24207;DHT22;12351;52.284;9.160;2022-12-26T04:37:41;9.50;99.90
24207;DHT22;12351;52.284;9.160;2022-12-26T04:40:34;9.40;99.90
24207;DHT22;12351;52.284;9.160;2022-12-26T04:43:24;9.40;99.90
24207;DHT22;12351;52.284;9.160;2022-12-26T04:46:14;9.40;99.90
24207;DHT22;12351;52.284;9.160;2022-12-26T04:49:06;9.50;99.90
24207;DHT22;12351;52.284;9.160;2022-12-26T04:51:56;9.40;99.90
24207;DHT22;12351;52.284;9.160;2022-12-26T04:54:44;9.40;99.90
24207;DHT22;12351;52.284;9.160;2022-12-26T04:57:34;9.50;99.90
24207;DHT22;12351;52.284;9.160;2022-12-26T05:00:28;9.40;99.90
24207;DHT22;12351;52.284;9.160;2022-12-26T05:03:17;9.40;99.90
24207;DHT22;12351;52.284;9.160;2022-12-26T05:06:08;9.40;99.90
24207;DHT22;12351;52.284;9.160;2022-12-26T05:08:59;9.40;99.90
24207;DHT22;12351;52.284;9.160;2022-12-26T05:11:51;9.40;99.90
24207;DHT22;12351;52.284;9.160;2022-12-26T05:14:38;9.40;99.90
24207;DHT22;12351;52.284;9.160;2022-12-26T05:17:26;9.40;99.90
24207;DHT22;12351;52.284;9.160;2022-12-26T05:20:17;9.40;99.90
24207;DHT22;12351;52.284;9.160;2022-12-26T05:25:56;9.30;99.90
24207;DHT22;12351;52.284;9.160;2022-12-26T05:28:49;9.30;99.90
24207;DHT22;12351;52.284;9.160;2022-12-26T05:31:37;9.30;99.90
24207;DHT22;12351;52.284;9.160;2022-12-26T05:34:27;9.30;99.90
24207;DHT22;12351;52.284;9.160;2022-12-26T05:37:15;9.20;99.90
24207;DHT22;12351;52.284;9.160;2022-12-26T05:40:05;9.30;99.90
24207;DHT22;12351;52.284;9.160;2022-12-26T05:42:53;9.30;99.90
24207;DHT22;12351;52.284;9.160;2022-12-26T05:45:42;9.20;99.90
24207;DHT22;12351;52.284;9.160;2022-12-26T05:48:32;9.20;99.90
24207;DHT22;12351;52.284;9.160;2022-12-26T05:51:20;9.20;99.90
24207;DHT22;12351;52.284;9.160;2022-12-26T05:54:08;9.20;99.90
24207;DHT22;12351;52.284;9.160;2022-12-26T05:57:00;9.10;99.90
24207;DHT22;12351;52.284;9.160;2022-12-26T05:59:46;9.10;99.90
24207;DHT22;12351;52.284;9.160;2022-12-26T06:02:33;9.10;99.90
24207;DHT22;12351;52.284;9.160;2022-12-26T06:05:24;9.10;99.90
24207;DHT22;12351;52.284;9.160;2022-12-26T06:08:11;9.10;99.90
24207;DHT22;12351;52.284;9.160;2022-12-26T06:13:51;9.10;99.90
24207;DHT22;12351;52.284;9.160;2022-12-26T06:16:40;9.10;99.90
24207;DHT22;12351;52.284;9.160;2022-12-26T06:19:28;9.10;99.90
24207;DHT22;12351;52.284;9.160;2022-12-26T06:22:15;9.10;99.90
24207;DHT22;12351;52.284;9.160;2022-12-26T06:25:06;9.10;99.90
24207;DHT22;12351;52.284;9.160;2022-12-26T06:27:54;9.00;99.90
24207;DHT22;12351;52.284;9.160;2022-12-26T06:30:44;9.10;99.90
24207;DHT22;12351;52.284;9.160;2022-12-26T06:33:33;9.10;99.90
24207;DHT22;12351;52.284;9.160;2022-12-26T06:36:23;9.10;99.90
24207;DHT22;12351;52.284;9.160;2022-12-26T06:39:10;9.10;99.90
24207;DHT22;12351;52.284;9.160;2022-12-26T06:42:01;9.10;99.90
24207;DHT22;12351;52.284;9.160;2022-12-26T06:44:50;9.00;99.90
24207;DHT22;12351;52.284;9.160;2022-12-26T06:47:38;9.00;99.90
24207;DHT22;12351;52.284;9.160;2022-12-26T06:50:26;9.00;99.90
24207;DHT22;12351;52.284;9.160;2022-12-26T06:53:16;8.90;99.90
24207;DHT22;12351;52.284;9.160;2022-12-26T06:58:56;8.90;99.90
24207;DHT22;12351;52.284;9.160;2022-12-26T07:01:44;8.90;99.90
24207;DHT22;12351;52.284;9.160;2022-12-26T07:04:32;8.90;99.90
24207;DHT22;12351;52.284;9.160;2022-12-26T07:07:22;8.90;99.90
24207;DHT22;12351;52.284;9.160;2022-12-26T07:10:10;8.90;99.90
24207;DHT22;12351;52.284;9.160;2022-12-26T07:13:00;8.90;99.90
24207;DHT22;12351;52.284;9.160;2022-12-26T07:15:49;8.90;99.90
24207;DHT22;12351;52.284;9.160;2022-12-26T07:18:37;8.90;99.90
24207;DHT22;12351;52.284;9.160;2022-12-26T07:21:27;8.90;99.90
24207;DHT22;12351;52.284;9.160;2022-12-26T07:24:16;8.90;99.90
24207;DHT22;12351;52.284;9.160;2022-12-26T07:27:05;8.90;99.90
24207;DHT22;12351;52.284;9.160;2022-12-26T07:29:53;8.90;99.90
24207;DHT22;12351;52.284;9.160;2022-12-26T07:32:41;8.90;99.90
24207;DHT22;12351;52.284;9.160;2022-12-26T07:35:28;8.90;99.90
24207;DHT22;12351;52.284;9.160;2022-12-26T07:38:15;8.80;99.90
24207;DHT22;12351;52.284;9.160;2022-12-26T07:41:02;8.80;99.90
24207;DHT22;12351;52.284;9.160;2022-12-26T07:43:54;8.80;99.90
24207;DHT22;12351;52.284;9.160;2022-12-26T07:46:42;8.80;99.90
24207;DHT22;12351;52.284;9.160;2022-12-26T07:49:30;8.80;99.90
24207;DHT22;12351;52.284;9.160;2022-12-26T07:52:23;8.70;99.90
24207;DHT22;12351;52.284;9.160;2022-12-26T07:55:10;8.70;99.90
24207;DHT22;12351;52.284;9.160;2022-12-26T07:57:59;8.70;99.90
24207;DHT22;12351;52.284;9.160;2022-12-26T08:00:49;8.80;99.90
24207;DHT22;12351;52.284;9.160;2022-12-26T08:03:39;8.80;99.90
24207;DHT22;12351;52.284;9.160;2022-12-26T08:06:29;8.80;99.90
24207;DHT22;12351;52.284;9.160;2022-12-26T08:09:17;8.70;99.90
24207;DHT22;12351;52.284;9.160;2022-12-26T08:12:05;8.70;99.90
24207;DHT22;12351;52.284;9.160;2022-12-26T08:14:55;8.70;99.90
24207;DHT22;12351;52.284;9.160;2022-12-26T08:17:41;8.70;99.90
24207;DHT22;12351;52.284;9.160;2022-12-26T08:20:30;8.70;99.90
24207;DHT22;12351;52.284;9.160;2022-12-26T08:23:20;8.70;99.90
24207;DHT22;12351;52.284;9.160;2022-12-26T08:26:12;8.70;99.90
24207;DHT22;12351;52.284;9.160;2022-12-26T08:29:02;8.70;99.90
24207;DHT22;12351;52.284;9.160;2022-12-26T08:31:51;8.70;99.90
24207;DHT22;12351;52.284;9.160;2022-12-26T08:34:39;8.80;99.90
24207;DHT22;12351;52.284;9.160;2022-12-26T08:37:28;8.80;99.90
24207;DHT22;12351;52.284;9.160;2022-12-26T08:40:18;8.80;99.90
24207;DHT22;12351;52.284;9.160;2022-12-26T08:43:06;8.70;99.90
24207;DHT22;12351;52.284;9.160;2022-12-26T08:48:45;8.80;99.90
24207;DHT22;12351;52.284;9.160;2022-12-26T08:51:32;8.80;99.90
24207;DHT22;12351;52.284;9.160;2022-12-26T08:54:21;8.80;99.90
24207;DHT22;12351;52.284;9.160;2022-12-26T08:57:12;8.80;99.90
24207;DHT22;12351;52.284;9.160;2022-12-26T09:00:00;8.90;99.90
24207;DHT22;12351;52.284;9.160;2022-12-26T09:02:50;8.80;99.90
24207;DHT22;12351;52.284;9.160;2022-12-26T09:05:38;8.90;99.90
24207;DHT22;12351;52.284;9.160;2022-12-26T09:08:27;8.90;99.90
24207;DHT22;12351;52.284;9.160;2022-12-26T09:11:19;8.90;99.90
24207;DHT22;12351;52.284;9.160;2022-12-26T09:14:07;8.90;99.90
24207;DHT22;12351;52.284;9.160;2022-12-26T09:16:58;8.90;99.90
24207;DHT22;12351;52.284;9.160;2022-12-26T09:19:48;8.90;99.90
24207;DHT22;12351;52.284;9.160;2022-12-26T09:22:34;8.90;99.90
24207;DHT22;12351;52.284;9.160;2022-12-26T09:25:24;8.90;99.90
24207;DHT22;12351;52.284;9.160;2022-12-26T09:28:13;8.90;99.90
24207;DHT22;12351;52.284;9.160;2022-12-26T09:31:03;8.90;99.90
24207;DHT22;12351;52.284;9.160;2022-12-26T09:33:52;9.00;99.90
24207;DHT22;12351;52.284;9.160;2022-12-26T09:36:42;9.00;99.90
24207;DHT22;12351;52.284;9.160;2022-12-26T09:39:30;9.00;99.90
24207;DHT22;12351;52.284;9.160;2022-12-26T09:45:12;9.00;99.90
24207;DHT22;12351;52.284;9.160;2022-12-26T09:48:31;9.10;99.90
24207;DHT22;12351;52.284;9.160;2022-12-26T09:50:50;9.10;99.90
24207;DHT22;12351;52.284;9.160;2022-12-26T09:53:40;9.10;99.90
24207;DHT22;12351;52.284;9.160;2022-12-26T09:56:30;9.10;99.90
24207;DHT22;12351;52.284;9.160;2022-12-26T09:59:20;9.10;99.90
24207;DHT22;12351;52.284;9.160;2022-12-26T10:05:01;9.20;99.90
24207;DHT22;12351;52.284;9.160;2022-12-26T10:07:52;9.20;99.90
24207;DHT22;12351;52.284;9.160;2022-12-26T10:10:44;9.20;99.90
24207;DHT22;12351;52.284;9.160;2022-12-26T10:16:25;9.20;99.90
24207;DHT22;12351;52.284;9.160;2022-12-26T10:19:21;9.20;99.90
24207;DHT22;12351;52.284;9.160;2022-12-26T10:25:00;9.30;99.90
24207;DHT22;12351;52.284;9.160;2022-12-26T10:27:50;9.20;99.90
24207;DHT22;12351;52.284;9.160;2022-12-26T10:30:40;9.20;99.90
24207;DHT22;12351;52.284;9.160;2022-12-26T10:36:22;9.30;99.90
24207;DHT22;12351;52.284;9.160;2022-12-26T10:39:12;9.30;99.90
24207;DHT22;12351;52.284;9.160;2022-12-26T10:42:07;9.30;99.90
24207;DHT22;12351;52.284;9.160;2022-12-26T10:44:52;9.30;99.90
24207;DHT22;12351;52.284;9.160;2022-12-26T10:47:42;9.30;99.90
24207;DHT22;12351;52.284;9.160;2022-12-26T10:50:32;9.40;99.90
24207;DHT22;12351;52.284;9.160;2022-12-26T10:53:21;9.40;99.90
24207;DHT22;12351;52.284;9.160;2022-12-26T10:56:10;9.40;99.90
24207;DHT22;12351;52.284;9.160;2022-12-26T10:59:00;9.30;99.90
24207;DHT22;12351;52.284;9.160;2022-12-26T11:01:49;9.40;99.90
24207;DHT22;12351;52.284;9.160;2022-12-26T11:04:36;9.40;99.90
24207;DHT22;12351;52.284;9.160;2022-12-26T11:07:26;9.40;99.90
24207;DHT22;12351;52.284;9.160;2022-12-26T11:10:17;9.50;99.90
24207;DHT22;12351;52.284;9.160;2022-12-26T11:13:06;9.50;99.90
24207;DHT22;12351;52.284;9.160;2022-12-26T11:15:57;9.50;99.90
24207;DHT22;12351;52.284;9.160;2022-12-26T11:18:48;9.50;99.90
24207;DHT22;12351;52.284;9.160;2022-12-26T11:21:34;9.50;99.90
24207;DHT22;12351;52.284;9.160;2022-12-26T11:24:24;9.60;99.90
24207;DHT22;12351;52.284;9.160;2022-12-26T11:27:16;9.60;99.90
24207;DHT22;12351;52.284;9.160;2022-12-26T11:30:09;9.60;99.90
24207;DHT22;12351;52.284;9.160;2022-12-26T11:35:49;9.60;99.90
24207;DHT22;12351;52.284;9.160;2022-12-26T11:38:43;9.60;99.90
24207;DHT22;12351;52.284;9.160;2022-12-26T11:41:33;9.60;99.90
24207;DHT22;12351;52.284;9.160;2022-12-26T11:52:45;9.60;99.90
24207;DHT22;12351;52.284;9.160;2022-12-26T11:55:35;9.60;99.90
24207;DHT22;12351;52.284;9.160;2022-12-26T11:58:27;9.60;99.90
24207;DHT22;12351;52.284;9.160;2022-12-26T12:01:15;9.70;99.90
24207;DHT22;12351;52.284;9.160;2022-12-26T12:04:04;9.70;99.90
24207;DHT22;12351;52.284;9.160;2022-12-26T12:06:55;9.70;99.90
24207;DHT22;12351;52.284;9.160;2022-12-26T12:09:49;9.70;99.90
24207;DHT22;12351;52.284;9.160;2022-12-26T12:15:27;9.70;99.90
24207;DHT22;12351;52.284;9.160;2022-12-26T12:18:19;9.80;99.90
24207;DHT22;12351;52.284;9.160;2022-12-26T12:23:58;9.90;99.90
24207;DHT22;12351;52.284;9.160;2022-12-26T12:26:45;9.90;99.90
24207;DHT22;12351;52.284;9.160;2022-12-26T12:35:00;9.90;99.90
24207;DHT22;12351;52.284;9.160;2022-12-26T12:43:16;10.00;99.90
24207;DHT22;12351;52.284;9.160;2022-12-26T12:48:59;10.00;99.90
24207;DHT22;12351;52.284;9.160;2022-12-26T12:51:48;10.00;99.90
24207;DHT22;12351;52.284;9.160;2022-12-26T13:00:17;9.90;99.90
24207;DHT22;12351;52.284;9.160;2022-12-26T13:03:11;9.90;99.90
24207;DHT22;12351;52.284;9.160;2022-12-26T13:17:18;9.70;99.90
24207;DHT22;12351;52.284;9.160;2022-12-26T13:22:57;9.60;99.90
24207;DHT22;12351;52.284;9.160;2022-12-26T13:25:52;9.30;99.90
24207;DHT22;12351;52.284;9.160;2022-12-26T13:28:39;8.90;99.90
24207;DHT22;12351;52.284;9.160;2022-12-26T13:34:18;8.70;99.90
24207;DHT22;12351;52.284;9.160;2022-12-26T13:37:07;8.70;99.90
24207;DHT22;12351;52.284;9.160;2022-12-26T13:39:59;8.70;99.90
24207;DHT22;12351;52.284;9.160;2022-12-26T13:54:12;8.60;99.90
24207;DHT22;12351;52.284;9.160;2022-12-26T13:57:06;8.50;99.90
24207;DHT22;12351;52.284;9.160;2022-12-26T14:17:07;7.60;99.90
24207;DHT22;12351;52.284;9.160;2022-12-26T14:28:23;7.20;99.90
24207;DHT22;12351;52.284;9.160;2022-12-26T14:36:56;7.00;99.90
24207;DHT22;12351;52.284;9.160;2022-12-26T14:42:30;6.90;99.90
24207;DHT22;12351;52.284;9.160;2022-12-26T14:53:41;6.70;99.90
24207;DHT22;12351;52.284;9.160;2022-12-26T14:56:33;6.70;99.90
24207;DHT22;12351;52.284;9.160;2022-12-26T15:16:17;6.40;99.90
24207;DHT22;12351;52.284;9.160;2022-12-26T15:30:19;6.10;99.90
24207;DHT22;12351;52.284;9.160;2022-12-26T15:33:11;6.10;99.90
24207;DHT22;12351;52.284;9.160;2022-12-26T15:38:54;5.90;99.90
24207;DHT22;12351;52.284;9.160;2022-12-26T15:41:44;5.90;99.90
24207;DHT22;12351;52.284;9.160;2022-12-26T15:44:33;5.90;99.90
24207;DHT22;12351;52.284;9.160;2022-12-26T15:58:35;5.80;99.90
24207;DHT22;12351;52.284;9.160;2022-12-26T16:04:15;5.70;99.90
24207;DHT22;12351;52.284;9.160;2022-12-26T16:09:55;5.60;99.90
24207;DHT22;12351;52.284;9.160;2022-12-26T16:12:54;5.50;99.90
24207;DHT22;12351;52.284;9.160;2022-12-26T16:15:40;5.40;99.90
24207;DHT22;12351;52.284;9.160;2022-12-26T16:18:26;5.40;99.90
24207;DHT22;12351;52.284;9.160;2022-12-26T16:21:14;5.40;99.90
24207;DHT22;12351;52.284;9.160;2022-12-26T16:24:06;5.40;99.90
24207;DHT22;12351;52.284;9.160;2022-12-26T16:26:58;5.40;99.90
24207;DHT22;12351;52.284;9.160;2022-12-26T16:29:47;5.40;99.90
24207;DHT22;12351;52.284;9.160;2022-12-26T16:32:37;5.30;99.90
24207;DHT22;12351;52.284;9.160;2022-12-26T16:35:28;5.40;99.90
24207;DHT22;12351;52.284;9.160;2022-12-26T16:38:17;5.30;99.90
24207;DHT22;12351;52.284;9.160;2022-12-26T16:46:51;5.20;99.90
24207;DHT22;12351;52.284;9.160;2022-12-26T16:49:39;5.20;99.90
24207;DHT22;12351;52.284;9.160;2022-12-26T16:55:23;5.20;99.90
24207;DHT22;12351;52.284;9.160;2022-12-26T16:58:15;5.20;99.90
24207;DHT22;12351;52.284;9.160;2022-12-26T17:03:55;5.20;99.90
24207;DHT22;12351;52.284;9.160;2022-12-26T17:06:45;5.10;99.90
24207;DHT22;12351;52.284;9.160;2022-12-26T17:12:26;5.00;99.90
24207;DHT22;12351;52.284;9.160;2022-12-26T17:20:56;4.90;99.90
24207;DHT22;12351;52.284;9.160;2022-12-26T17:23:45;4.90;99.90
24207;DHT22;12351;52.284;9.160;2022-12-26T17:26:35;4.90;99.90
24207;DHT22;12351;52.284;9.160;2022-12-26T17:38:00;4.90;99.90
24207;DHT22;12351;52.284;9.160;2022-12-26T17:40:52;4.90;99.90
24207;DHT22;12351;52.284;9.160;2022-12-26T17:43:41;4.80;99.90
24207;DHT22;12351;52.284;9.160;2022-12-26T17:46:31;4.80;99.90
24207;DHT22;12351;52.284;9.160;2022-12-26T17:49:19;4.80;99.90
24207;DHT22;12351;52.284;9.160;2022-12-26T17:52:12;4.80;99.90
24207;DHT22;12351;52.284;9.160;2022-12-26T17:54:59;4.90;99.90
24207;DHT22;12351;52.284;9.160;2022-12-26T17:57:48;4.80;99.90
24207;DHT22;12351;52.284;9.160;2022-12-26T18:00:39;4.80;99.90
24207;DHT22;12351;52.284;9.160;2022-12-26T18:03:28;4.80;99.90
24207;DHT22;12351;52.284;9.160;2022-12-26T18:06:17;4.80;99.90
24207;DHT22;12351;52.284;9.160;2022-12-26T18:09:06;4.80;99.90
24207;DHT22;12351;52.284;9.160;2022-12-26T18:11:54;4.90;99.90
24207;DHT22;12351;52.284;9.160;2022-12-26T18:14:42;4.80;99.90
24207;DHT22;12351;52.284;9.160;2022-12-26T18:17:32;4.80;99.90
24207;DHT22;12351;52.284;9.160;2022-12-26T18:23:13;4.80;99.90
24207;DHT22;12351;52.284;9.160;2022-12-26T18:26:03;4.80;99.90
24207;DHT22;12351;52.284;9.160;2022-12-26T18:28:51;4.80;99.90
24207;DHT22;12351;52.284;9.160;2022-12-26T18:31:39;4.80;99.90
24207;DHT22;12351;52.284;9.160;2022-12-26T18:34:26;4.80;99.90
24207;DHT22;12351;52.284;9.160;2022-12-26T18:37:17;4.80;99.90
24207;DHT22;12351;52.284;9.160;2022-12-26T18:40:09;4.80;99.90
24207;DHT22;12351;52.284;9.160;2022-12-26T18:42:55;4.70;99.90
24207;DHT22;12351;52.284;9.160;2022-12-26T18:45:44;4.70;99.90
24207;DHT22;12351;52.284;9.160;2022-12-26T18:48:31;4.70;99.90
24207;DHT22;12351;52.284;9.160;2022-12-26T18:51:21;4.60;99.90
24207;DHT22;12351;52.284;9.160;2022-12-26T18:54:10;4.60;99.90
24207;DHT22;12351;52.284;9.160;2022-12-26T18:56:58;4.60;99.90
24207;DHT22;12351;52.284;9.160;2022-12-26T18:59:48;4.60;99.90
24207;DHT22;12351;52.284;9.160;2022-12-26T19:02:36;4.50;99.90
24207;DHT22;12351;52.284;9.160;2022-12-26T19:05:28;4.50;99.90
24207;DHT22;12351;52.284;9.160;2022-12-26T19:08:17;4.50;99.90
24207;DHT22;12351;52.284;9.160;2022-12-26T19:11:06;4.50;99.90
24207;DHT22;12351;52.284;9.160;2022-12-26T19:13:53;4.40;99.90
24207;DHT22;12351;52.284;9.160;2022-12-26T19:16:41;4.40;99.90
24207;DHT22;12351;52.284;9.160;2022-12-26T19:19:31;4.40;99.90
24207;DHT22;12351;52.284;9.160;2022-12-26T19:22:18;4.40;99.90
24207;DHT22;12351;52.284;9.160;2022-12-26T19:25:07;4.30;99.90
24207;DHT22;12351;52.284;9.160;2022-12-26T19:27:58;4.30;99.90
24207;DHT22;12351;52.284;9.160;2022-12-26T19:30:46;4.30;99.90
24207;DHT22;12351;52.284;9.160;2022-12-26T19:33:36;4.30;99.90
24207;DHT22;12351;52.284;9.160;2022-12-26T19:36:24;4.20;99.90
24207;DHT22;12351;52.284;9.160;2022-12-26T19:39:11;4.20;99.90
24207;DHT22;12351;52.284;9.160;2022-12-26T19:42:00;4.20;99.90
24207;DHT22;12351;52.284;9.160;2022-12-26T19:44:48;4.10;99.90
24207;DHT22;12351;52.284;9.160;2022-12-26T19:47:37;4.10;99.90
24207;DHT22;12351;52.284;9.160;2022-12-26T19:50:26;4.10;99.90
24207;DHT22;12351;52.284;9.160;2022-12-26T19:53:14;4.10;99.90
24207;DHT22;12351;52.284;9.160;2022-12-26T19:56:05;4.10;99.90
24207;DHT22;12351;52.284;9.160;2022-12-26T19:58:52;4.10;99.90
24207;DHT22;12351;52.284;9.160;2022-12-26T20:01:43;4.00;99.90
24207;DHT22;12351;52.284;9.160;2022-12-26T20:04:31;4.00;99.90
24207;DHT22;12351;52.284;9.160;2022-12-26T20:07:19;4.00;99.90
24207;DHT22;12351;52.284;9.160;2022-12-26T20:10:09;3.90;99.90
24207;DHT22;12351;52.284;9.160;2022-12-26T20:12:57;3.90;99.90
24207;DHT22;12351;52.284;9.160;2022-12-26T20:15:47;3.90;99.90
24207;DHT22;12351;52.284;9.160;2022-12-26T20:18:36;3.90;99.90
24207;DHT22;12351;52.284;9.160;2022-12-26T20:21:26;3.90;99.90
24207;DHT22;12351;52.284;9.160;2022-12-26T20:24:16;3.90;99.90
24207;DHT22;12351;52.284;9.160;2022-12-26T20:27:05;3.80;99.90
24207;DHT22;12351;52.284;9.160;2022-12-26T20:29:54;3.80;99.90
24207;DHT22;12351;52.284;9.160;2022-12-26T20:32:41;3.80;99.90
24207;DHT22;12351;52.284;9.160;2022-12-26T20:35:30;3.70;99.90
24207;DHT22;12351;52.284;9.160;2022-12-26T20:38:18;3.70;99.90
24207;DHT22;12351;52.284;9.160;2022-12-26T20:41:07;3.80;99.90
24207;DHT22;12351;52.284;9.160;2022-12-26T20:43:59;3.80;99.90
24207;DHT22;12351;52.284;9.160;2022-12-26T20:46:47;3.80;99.90
24207;DHT22;12351;52.284;9.160;2022-12-26T20:49:36;3.70;99.90
24207;DHT22;12351;52.284;9.160;2022-12-26T20:52:24;3.70;99.90
24207;DHT22;12351;52.284;9.160;2022-12-26T20:55:13;3.70;99.90
24207;DHT22;12351;52.284;9.160;2022-12-26T20:58:02;3.70;99.90
24207;DHT22;12351;52.284;9.160;2022-12-26T21:00:54;3.70;99.90
24207;DHT22;12351;52.284;9.160;2022-12-26T21:03:41;3.70;99.90
24207;DHT22;12351;52.284;9.160;2022-12-26T21:06:31;3.70;99.90
24207;DHT22;12351;52.284;9.160;2022-12-26T21:09:20;3.70;99.90
24207;DHT22;12351;52.284;9.160;2022-12-26T21:12:09;3.70;99.90
24207;DHT22;12351;52.284;9.160;2022-12-26T21:14:57;3.70;99.90
24207;DHT22;12351;52.284;9.160;2022-12-26T21:17:47;3.70;99.90
24207;DHT22;12351;52.284;9.160;2022-12-26T21:20:37;3.70;99.90
24207;DHT22;12351;52.284;9.160;2022-12-26T21:23:25;3.60;99.90
24207;DHT22;12351;52.284;9.160;2022-12-26T21:26:14;3.60;99.90
24207;DHT22;12351;52.284;9.160;2022-12-26T21:29:05;3.60;99.90
24207;DHT22;12351;52.284;9.160;2022-12-26T21:31:55;3.60;99.90
24207;DHT22;12351;52.284;9.160;2022-12-26T21:34:46;3.60;99.90
24207;DHT22;12351;52.284;9.160;2022-12-26T21:37:34;3.50;99.90
24207;DHT22;12351;52.284;9.160;2022-12-26T21:40:24;3.50;99.90
24207;DHT22;12351;52.284;9.160;2022-12-26T21:43:12;3.50;99.90
24207;DHT22;12351;52.284;9.160;2022-12-26T21:48:52;3.50;99.90
24207;DHT22;12351;52.284;9.160;2022-12-26T21:51:40;3.50;99.90
24207;DHT22;12351;52.284;9.160;2022-12-26T21:54:27;3.50;99.90
24207;DHT22;12351;52.284;9.160;2022-12-26T21:57:17;3.40;99.90
24207;DHT22;12351;52.284;9.160;2022-12-26T22:00:07;3.50;99.90
24207;DHT22;12351;52.284;9.160;2022-12-26T22:02:56;3.40;99.90
24207;DHT22;12351;52.284;9.160;2022-12-26T22:05:46;3.40;99.90
24207;DHT22;12351;52.284;9.160;2022-12-26T22:08:34;3.50;99.90
24207;DHT22;12351;52.284;9.160;2022-12-26T22:11:24;3.50;99.90
24207;DHT22;12351;52.284;9.160;2022-12-26T22:14:14;3.50;99.90
24207;DHT22;12351;52.284;9.160;2022-12-26T22:17:03;3.50;99.90
24207;DHT22;12351;52.284;9.160;2022-12-26T22:19:52;3.50;99.90
24207;DHT22;12351;52.284;9.160;2022-12-26T22:22:40;3.40;99.90
24207;DHT22;12351;52.284;9.160;2022-12-26T22:25:27;3.40;99.90
24207;DHT22;12351;52.284;9.160;2022-12-26T22:28:15;3.40;99.90